Portada
METAR-TAF:

METAR-TAF

Aeropuertos :

Aeropuerto de Chitá-Kadala

Chitá, Rusia

latitud: 52-05N, longitud: 113-29E, altitud: 685 m

Observación

El informe se hizo hace 21 minutos, a las 23:00 UTC
Viento 8 kt del norte-noreste
Temperatura 17°C
Humedad 55%
Presión 1007 hPa
Visibilidad 10 km o más

METAR: UIAA 212300Z 02004MPS 9999 NSC 17/08 Q1007 R29/70D NOSIG RMK QFE697/0929

Hora: 08:21 (23:21 UTC)

Pronóstico

El informe se hizo hace 3 horas y 21 minutos, a las 20:00 UTC
Pronóstico válido del 21 a las 21 UTC al 22 a las 21 UTC
Viento 6 kt del norte-noreste con ráfagas de 16 kt
Visibilidad 10 km o más
Nubes dispersas a una altura de 4000 ft, Cumulonimbus.
Temporalmente
del 21 a las 21 UTC al 22 a las 21 UTC
Viento 10 kt del este con ráfagas de 19 kt

TAF: UIAA 212000Z 2121/2221 03003G08MPS 9999 SCT040CB TEMPO 2121/2221 09005G10MPS

Observaciones y pronósticos meteorológicos de más de 4000 aeropuertos (mensajes METAR y TAF).

Los puntos amarillos y rojos representan las estaciones disponibles.

Ponga el ratón en el punto deseado para ver el nombre de la estación.

Haga clic para ver las observaciones y los pronósticos meteorológicos.

Para cambiar el mapa : haga clic en los botones verdes con una cruz de color negro para hacer un zoom, en el botón verde con un guión para alejar o en las flechas verdes para mapas adyacentes.


METAR-TAF: